New Richmond Municipal Airport

About
Name: New Richmond Municipal Airport
Identifier:  RNH/KRNH
Local Time:  20. Aug 09:44 CDT
Location
New Richmond
  United States

Flights per Day
0 flights
Distance: 564km (350mi)
Punctuality
0% (0 flights per day delayed)
Delay Average: 82 minutes
Current Weather
 20 C (Humidity: 72%)
  5kt (9km/h / 5mph) from 160°
  Broken clouds at 10,000 feet (3,048 meter)
  16km (10 mi.)
 METAR KRNH 201415Z AUTO 16005KT 10SM BKN100 20/15 A2997 RMK AO2 T01960150

Current Flights

Departures
Number Departure To Airline
Arrivals
Number Arrival From Airline

Current Delays

Departures
N/A
Arrivals
N/A

Destinations

Top Destinations
Airport Flights
per week
Seats
per week
  Janesville (JVL) 0 - 0 0
  Green Bay (GRB) 0 - 0 0
  Columbus (OLU) 0 - 0 0
  Superior (SUW) 0 - 0 0
  Chicago (PWK) 0 - 0 0
  Dickinson (DIK) 0 - 0 0
  Minneapolis (MSP) 0 - 0 0
  Madison (MSN) 0 - 0 0
  Sioux City (SUX) 0 - 0 0
  St. Cloud (STC) 0 - 0 0
  Wisconsin Rapids (ISW) 0 - 0 0
  Waukesha (UES) 0 - 0 0
  Oshkosh (OSH) 0 - 0 0
  Mankato (MKT) 0 - 0 0

Airlines & Planes

Top Airlines
Airline Flights
per Day
Seats
per Day
  Flybe Nordic 0 -
  National Airlines 0 -
Jet Charter Inc ( Franklin Lakes Nj ) 0 -
Nordwind Airlines 0 -
NetJets 0 -
Top Plane Types
Model Flights Seats
Cessna C82S 0.1/day - 0
Beech B200 Super King Air 0.1/day - 0
Piper PA-28RT-201T 0.0/day - 0
Embraer Phenom 300 0.0/day - 0